Time;durP1;ratioP1;P1;durP2;ratioP2;P2;SDS_P1;SDS_P2;PMS_P1;PMS_P2;Temp;Humidity;BMP_temperature;BMP_pressure;BME280_temperature;BME280_humidity;BME280_pressure;Samples;Min_cycle;Max_cycle;Signal;HPM_P1;HPM_P2
2022/04/30 00:00:53;;;;;;;5.60;2.70;;;;;;;7.06;78.38;101952.17;104155;1288;61503;-74
2022/04/30 00:03:42;;;;;;;6.80;2.10;;;;;;;7.05;78.11;101951.88;104219;1288;75721;-75
2022/04/30 00:06:18;;;;;;;3.70;2.20;;;;;;;7.03;78.45;101948.16;104211;1288;72522;-74
2022/04/30 00:09:23;;;;;;;6.90;2.40;;;;;;;7.02;78.82;101954.43;104083;1288;72958;-76
2022/04/30 00:11:51;;;;;;;4.60;2.10;;;;;;;7.00;78.85;101956.00;104160;1288;61344;-76
2022/04/30 00:14:18;;;;;;;7.00;2.50;;;;;;;6.98;78.84;101955.10;104228;1288;61757;-76
2022/04/30 00:16:50;;;;;;;13.70;3.10;;;;;;;6.96;79.17;101954.55;104184;1290;75005;-77
2022/04/30 00:19:20;;;;;;;5.10;2.50;;;;;;;6.93;79.58;101951.92;104279;1288;72391;-75
2022/04/30 00:21:49;;;;;;;6.80;2.30;;;;;;;6.89;79.74;101944.71;104201;1290;74167;-75
2022/04/30 00:24:21;;;;;;;5.50;1.80;;;;;;;6.87;79.96;101943.92;104941;1288;61458;-75
2022/04/30 00:26:50;;;;;;;5.60;2.60;;;;;;;6.84;80.42;101945.08;104209;1288;61273;-75
2022/04/30 00:29:17;;;;;;;3.60;2.80;;;;;;;6.81;80.47;101944.81;104996;1288;75001;-75
2022/04/30 00:31:44;;;;;;;5.80;2.50;;;;;;;6.80;80.45;101947.19;104000;1288;71379;-77
2022/04/30 00:34:11;;;;;;;4.80;2.20;;;;;;;6.77;80.77;101946.52;104182;1288;73974;-77
2022/04/30 00:36:43;;;;;;;10.20;2.50;;;;;;;6.75;80.69;101944.38;103947;1290;61351;-77
2022/04/30 00:39:13;;;;;;;6.70;2.10;;;;;;;6.74;81.03;101948.72;104222;1288;61320;-76
2022/04/30 00:41:47;;;;;;;5.40;2.10;;;;;;;6.72;81.32;101944.45;104208;1288;76013;-76
2022/04/30 00:44:24;;;;;;;8.40;2.50;;;;;;;6.70;81.40;101948.25;104154;1288;71506;-76
2022/04/30 00:47:32;;;;;;;;;;;;;;;;;;;;;
2022/04/30 00:49:59;;;;;;;5.60;1.90;;;;;;;6.67;81.54;101947.96;104059;1288;61256;-76
2022/04/30 00:52:26;;;;;;;4.90;2.10;;;;;;;6.66;81.92;101945.94;104136;1290;61288;-75
2022/04/30 00:55:21;;;;;;;6.70;2.10;;;;;;;6.66;82.42;101949.33;104226;1288;76427;-76
2022/04/30 00:57:45;;;;;;;4.90;1.80;;;;;;;6.65;82.20;101946.23;104318;1288;73795;-77
2022/04/30 01:00:18;;;;;;;4.60;2.00;;;;;;;6.64;82.22;101947.84;104192;1288;74056;-78
2022/04/30 01:02:45;;;;;;;4.40;2.20;;;;;;;6.64;82.50;101949.29;104203;1288;62618;-76
2022/04/30 01:05:12;;;;;;;4.40;2.70;;;;;;;6.63;82.60;101947.09;104211;1288;61874;-76
2022/04/30 01:07:41;;;;;;;7.10;2.60;;;;;;;6.61;82.94;101943.69;103904;1288;75186;-75
2022/04/30 01:10:09;;;;;;;7.30;2.90;;;;;;;6.61;82.44;101943.52;104200;1288;71434;-75
2022/04/30 01:12:39;;;;;;;6.80;3.10;;;;;;;6.61;82.44;101939.66;104129;1288;73991;-74
2022/04/30 01:15:19;;;;;;;6.70;3.00;;;;;;;6.62;82.60;101941.73;104101;1290;61621;-75
2022/04/30 01:17:46;;;;;;;5.60;2.70;;;;;;;6.62;82.75;101939.42;104049;1288;61275;-75
2022/04/30 01:20:32;;;;;;;4.80;2.40;;;;;;;6.61;82.72;101936.16;104211;1287;74787;-78
2022/04/30 01:23:03;;;;;;;6.30;2.60;;;;;;;6.61;82.38;101932.98;104147;1288;71459;-77
2022/04/30 01:25:44;;;;;;;5.70;2.30;;;;;;;6.60;82.67;101929.19;104128;1288;71815;-76
2022/04/30 01:28:32;;;;;;;10.10;2.80;;;;;;;6.59;82.70;101925.27;104960;1288;62936;-77
2022/04/30 01:31:02;;;;;;;5.20;2.40;;;;;;;6.57;82.99;101927.48;104223;1288;61389;-76
2022/04/30 01:39:33;;;;;;;4.60;2.60;;;;;;;6.52;83.37;101928.04;104679;1288;71929;-76
2022/04/30 01:42:12;;;;;;;5.90;2.30;;;;;;;6.52;83.31;101920.49;103861;1289;62526;-78
2022/04/30 01:45:04;;;;;;;7.10;1.90;;;;;;;6.50;83.80;101921.52;104288;1288;61425;-79
2022/04/30 01:47:39;;;;;;;7.80;2.60;;;;;;;6.46;83.94;101917.58;104693;1288;75211;-76
2022/04/30 01:50:16;;;;;;;4.10;2.20;;;;;;;6.45;84.40;101916.66;106105;1287;71355;-75
2022/04/30 01:52:42;;;;;;;5.20;2.10;;;;;;;6.43;84.20;101916.25;105388;1289;73531;-77
2022/04/30 01:55:35;;;;;;;7.60;2.70;;;;;;;6.42;84.40;101910.33;104189;1288;62552;-75
2022/04/30 01:58:03;;;;;;;3.80;2.40;;;;;;;6.42;84.39;101911.96;104126;1288;61313;-76
2022/04/30 02:00:37;;;;;;;9.00;3.40;;;;;;;6.41;84.41;101912.74;104229;1288;74649;-75
2022/04/30 02:03:17;;;;;;;9.60;3.00;;;;;;;6.40;84.64;101912.80;104402;1291;71254;-76
2022/04/30 02:05:45;;;;;;;5.60;2.30;;;;;;;6.40;84.71;101909.83;104219;1288;74449;-75
2022/04/30 02:08:17;;;;;;;7.70;2.60;;;;;;;6.37;85.05;101907.20;103991;1290;62954;-77
2022/04/30 02:10:46;;;;;;;9.20;2.60;;;;;;;6.37;84.94;101904.29;104038;1290;61528;-75
2022/04/30 02:13:25;;;;;;;4.80;2.50;;;;;;;6.35;85.23;101902.29;104254;1288;76176;-76
2022/04/30 02:15:56;;;;;;;10.10;2.90;;;;;;;6.33;85.06;101897.66;104256;1288;71860;-76
2022/04/30 02:18:24;;;;;;;11.60;4.00;;;;;;;6.32;85.49;101897.98;104144;1288;74603;-75
2022/04/30 02:20:53;;;;;;;6.50;2.60;;;;;;;6.30;85.50;101900.54;104409;1288;62656;-76
2022/04/30 02:23:22;;;;;;;5.60;2.60;;;;;;;6.28;85.63;101895.81;104215;1288;61315;-75
2022/04/30 02:25:52;;;;;;;3.60;2.10;;;;;;;6.26;85.23;101889.45;104145;1288;75913;-75
2022/04/30 02:28:19;;;;;;;6.90;2.40;;;;;;;6.24;85.74;101891.89;104258;1288;72454;-76
2022/04/30 02:30:47;;;;;;;7.00;2.40;;;;;;;6.22;85.82;101886.42;104134;1288;73047;-75
2022/04/30 02:33:23;;;;;;;5.10;2.60;;;;;;;6.20;85.96;101881.30;104210;1288;61319;-75
2022/04/30 02:35:54;;;;;;;6.40;2.40;;;;;;;6.17;85.89;101875.53;104015;1290;61681;-76
2022/04/30 02:38:20;;;;;;;2.90;1.80;;;;;;;6.18;86.21;101873.06;104049;1291;75871;-75
2022/04/30 02:40:47;;;;;;;3.90;1.80;;;;;;;6.16;86.06;101872.12;104186;1288;61387;-75
2022/04/30 02:43:26;;;;;;;6.30;2.40;;;;;;;6.15;85.92;101870.95;104215;1288;72117;-77
2022/04/30 02:45:52;;;;;;;10.50;2.60;;;;;;;6.14;86.02;101867.36;104205;1287;61550;-76
2022/04/30 02:48:21;;;;;;;3.90;2.20;;;;;;;6.11;86.31;101863.50;104178;1288;61783;-75
2022/04/30 02:50:51;;;;;;;5.10;2.80;;;;;;;6.11;86.35;101865.98;104186;1288;75643;-76
2022/04/30 02:53:25;;;;;;;5.30;2.00;;;;;;;6.10;86.59;101863.98;104218;1288;74052;-76
2022/04/30 02:56:11;;;;;;;;;;;;;;;;;;;;;
2022/04/30 03:01:26;;;;;;;6.70;2.00;;;;;;;6.05;86.69;101857.16;104033;1288;61282;-75
2022/04/30 03:03:53;;;;;;;3.90;2.30;;;;;;;6.03;87.26;101855.50;103700;1290;74660;-74
2022/04/30 03:06:22;;;;;;;9.70;2.90;;;;;;;6.01;87.07;101850.40;104170;1288;70570;-75
2022/04/30 03:08:49;;;;;;;4.30;3.00;;;;;;;6.02;86.75;101852.79;104147;1288;73180;-75
2022/04/30 03:11:19;;;;;;;4.40;2.30;;;;;;;6.00;86.74;101852.05;104203;1288;61429;-75
2022/04/30 03:13:48;;;;;;;5.60;1.90;;;;;;;6.01;86.94;101853.77;104141;1288;61978;-72
2022/04/30 03:21:52;;;;;;;5.90;2.40;;;;;;;5.95;87.43;101846.81;104246;1288;73049;-75
2022/04/30 03:24:19;;;;;;;7.40;2.70;;;;;;;5.93;87.36;101843.44;104008;1289;61421;-75
2022/04/30 03:26:49;;;;;;;5.30;2.60;;;;;;;5.92;87.36;101842.45;104083;1288;61622;-75
2022/04/30 03:29:36;;;;;;;6.20;2.70;;;;;;;5.90;87.53;101843.28;103998;1288;74976;-75
2022/04/30 03:32:24;;;;;;;;;;;;;;;;;;;;;
2022/04/30 03:34:52;;;;;;;7.70;2.30;;;;;;;5.86;87.53;101841.70;104099;1287;72893;-75
2022/04/30 03:37:18;;;;;;;5.30;2.30;;;;;;;5.83;87.81;101840.70;104223;1288;61418;-77
2022/04/30 03:39:52;;;;;;;8.90;2.40;;;;;;;5.80;87.93;101838.99;103961;1288;61217;-76
2022/04/30 03:42:28;;;;;;;6.30;2.10;;;;;;;5.78;87.78;101838.80;104249;1288;75016;-76
2022/04/30 03:45:00;;;;;;;5.60;2.40;;;;;;;5.77;88.14;101841.16;104139;1290;71289;-75
2022/04/30 03:47:41;;;;;;;7.10;2.40;;;;;;;5.75;87.97;101841.81;104015;1290;72920;-77
2022/04/30 03:50:10;;;;;;;6.10;2.70;;;;;;;5.74;88.20;101839.98;104131;1290;62202;-76
2022/04/30 03:52:37;;;;;;;4.20;2.60;;;;;;;5.73;88.32;101837.20;104131;1288;61224;-75
2022/04/30 03:55:14;;;;;;;4.40;2.30;;;;;;;5.73;88.40;101837.56;104173;1288;76569;-74
2022/04/30 03:57:49;;;;;;;5.10;2.70;;;;;;;5.73;88.19;101835.95;103905;1290;72835;-75
2022/04/30 04:00:26;;;;;;;4.00;2.00;;;;;;;5.74;88.56;101840.30;104137;1288;74502;-75
2022/04/30 04:02:54;;;;;;;7.70;2.80;;;;;;;5.76;88.40;101838.45;104165;1288;62191;-75
2022/04/30 04:05:40;;;;;;;4.50;1.90;;;;;;;5.76;88.70;101835.60;105958;1288;60408;-77
2022/04/30 04:08:11;;;;;;;;;;;;;;;5.77;88.49;101838.17;104152;1288;74937;-74
2022/04/30 04:10:40;;;;;;;6.70;3.00;;;;;;;5.76;88.46;101834.15;104088;1288;70005;-74
2022/04/30 04:18:44;;;;;;;;;;;;;;;5.80;88.29;101843.71;104267;1288;63158;-75
2022/04/30 04:21:11;;;;;;;3.90;2.50;;;;;;;5.81;88.25;101841.92;104213;1288;75995;-74
2022/04/30 04:26:46;;;;;;;12.80;4.00;;;;;;;5.83;88.40;101840.00;104208;1288;74574;-75
2022/04/30 04:29:16;;;;;;;9.80;3.20;;;;;;;5.88;88.03;101845.79;104207;1288;62454;-75
2022/04/30 04:32:26;;;;;;;6.60;3.30;;;;;;;5.88;87.93;101843.61;104309;1288;61317;-75
2022/04/30 04:34:33;;;;;;;5.20;2.60;;;;;;;5.93;88.17;101846.59;104090;1290;76067;-75
2022/04/30 04:37:08;;;;;;;7.60;2.90;;;;;;;5.96;87.78;101848.19;104191;1288;72631;-76
2022/04/30 04:39:42;;;;;;;6.00;2.40;;;;;;;5.99;87.88;101847.94;104248;1288;74140;-76
2022/04/30 04:42:08;;;;;;;5.60;2.40;;;;;;;6.03;87.86;101852.35;104175;1290;61304;-75
2022/04/30 04:44:46;;;;;;;6.60;2.80;;;;;;;6.07;87.57;101853.48;104204;1288;61475;-74
2022/04/30 04:47:34;;;;;;;;;;;;;;;;;;;;;
2022/04/30 04:50:29;;;;;;;4.50;1.80;;;;;;;6.16;87.82;101854.79;104203;1288;71357;-75
2022/04/30 04:52:56;;;;;;;4.70;3.10;;;;;;;6.20;87.67;101854.98;104230;1288;74116;-76
2022/04/30 04:55:22;;;;;;;6.80;2.70;;;;;;;6.23;87.60;101855.59;104165;1290;61481;-74
2022/04/30 04:57:49;;;;;;;6.60;2.90;;;;;;;6.26;87.42;101855.05;104046;1290;61291;-75
2022/04/30 05:00:26;;;;;;;6.90;2.70;;;;;;;6.31;87.50;101857.06;103996;1290;61334;-76
2022/04/30 05:02:55;;;;;;;5.70;2.40;;;;;;;6.37;87.23;101861.18;104230;1288;72420;-76
2022/04/30 05:05:25;;;;;;;7.10;3.40;;;;;;;6.41;87.36;101863.67;104162;1288;74571;-77
2022/04/30 05:08:05;;;;;;;6.00;2.50;;;;;;;6.48;87.23;101870.04;103891;1291;61453;-74
2022/04/30 05:10:39;;;;;;;8.70;3.60;;;;;;;6.55;86.69;101868.77;104946;1288;62427;-75
2022/04/30 05:13:08;;;;;;;13.00;2.70;;;;;;;6.61;86.32;101871.27;104020;1288;74661;-75
2022/04/30 05:15:35;;;;;;;4.10;2.50;;;;;;;6.63;86.31;101872.90;104191;1289;71421;-75
2022/04/30 05:18:55;;;;;;;9.60;3.40;;;;;;;6.64;86.16;101875.08;104209;1288;74305;-74
2022/04/30 05:21:21;;;;;;;13.70;3.10;;;;;;;6.69;86.15;101877.54;104065;1290;62540;-75
2022/04/30 05:24:01;;;;;;;9.30;3.50;;;;;;;6.72;85.85;101880.93;104100;1290;61227;-75
2022/04/30 05:27:08;;;;;;;9.30;3.00;;;;;;;6.77;85.93;101881.80;104039;1288;76153;-76
2022/04/30 05:29:36;;;;;;;6.50;3.20;;;;;;;6.83;85.50;101880.83;104028;1290;73088;-77
2022/04/30 05:32:04;;;;;;;11.60;3.40;;;;;;;6.88;85.36;101880.77;104145;1288;74069;-75
2022/04/30 05:34:36;;;;;;;5.90;2.20;;;;;;;6.94;85.40;101876.39;104432;1290;61383;-76
2022/04/30 05:37:03;;;;;;;7.20;3.00;;;;;;;7.02;85.34;101876.48;104063;1290;61752;-76
2022/04/30 05:39:41;;;;;;;6.90;2.70;;;;;;;7.03;84.54;101876.92;104146;1290;76197;-76
2022/04/30 05:42:18;;;;;;;3.50;2.10;;;;;;;7.05;84.62;101869.22;104849;1287;72488;-76
2022/04/30 05:44:53;;;;;;;4.30;2.20;;;;;;;7.10;84.72;101871.42;104103;1288;74829;-76
2022/04/30 05:47:20;;;;;;;6.40;3.00;;;;;;;7.16;84.64;101874.98;103963;1290;61663;-75
2022/04/30 05:49:47;;;;;;;7.40;2.90;;;;;;;7.22;84.55;101873.31;103867;1290;62100;-76
2022/04/30 05:52:14;;;;;;;5.50;2.40;;;;;;;7.27;84.31;101872.58;104201;1290;76140;-76
2022/04/30 05:54:40;;;;;;;12.20;3.40;;;;;;;7.28;83.84;101871.70;104113;1288;61385;-73
2022/04/30 05:57:16;;;;;;;6.60;2.70;;;;;;;7.30;83.72;101875.97;104221;1288;72783;-76
2022/04/30 05:59:53;;;;;;;5.70;2.40;;;;;;;7.34;83.85;101877.77;104171;1288;61815;-74
2022/04/30 06:02:20;;;;;;;7.40;2.90;;;;;;;7.38;83.63;101880.11;104258;1288;61363;-74
2022/04/30 06:05:28;;;;;;;7.00;3.00;;;;;;;7.37;83.07;101881.98;104182;1288;75184;-76
2022/04/30 06:07:56;;;;;;;7.50;2.10;;;;;;;7.31;83.41;101876.95;103946;1290;71514;-76
2022/04/30 06:10:23;;;;;;;7.00;2.50;;;;;;;7.30;83.55;101879.65;104266;1290;74352;-76
2022/04/30 06:13:03;;;;;;;11.50;3.60;;;;;;;7.32;83.41;101881.43;104215;1288;61960;-76
2022/04/30 06:15:39;;;;;;;9.80;3.00;;;;;;;7.37;83.59;101888.27;105139;1288;61461;-77
2022/04/30 06:18:06;;;;;;;7.40;3.10;;;;;;;7.36;83.66;101887.84;104174;1289;74707;-74
2022/04/30 06:20:35;;;;;;;5.70;2.60;;;;;;;7.39;84.08;101887.28;104180;1288;72671;-75
2022/04/30 06:23:15;;;;;;;6.90;2.60;;;;;;;7.41;84.06;101890.98;104234;1288;74198;-74
2022/04/30 06:25:43;;;;;;;8.10;2.70;;;;;;;7.43;83.72;101885.89;104247;1288;62813;-74
2022/04/30 06:28:11;;;;;;;6.50;2.60;;;;;;;7.44;83.85;101881.70;104286;1288;62122;-76
2022/04/30 06:30:42;;;;;;;8.30;3.30;;;;;;;7.47;84.05;101883.09;104213;1288;75943;-77
2022/04/30 06:33:20;;;;;;;4.00;2.80;;;;;;;7.47;84.15;101884.49;104229;1288;72472;-76
2022/04/30 06:35:46;;;;;;;7.00;1.90;;;;;;;7.47;84.18;101886.59;104206;1288;73138;-77
2022/04/30 06:38:18;;;;;;;6.40;3.40;;;;;;;7.48;84.35;101888.11;104321;1288;61439;-77
2022/04/30 06:40:46;;;;;;;14.70;3.90;;;;;;;7.53;84.43;101891.58;104250;1288;62689;-76
2022/04/30 06:43:21;;;;;;;3.80;1.90;;;;;;;7.57;84.41;101894.91;104201;1288;76294;-76
2022/04/30 06:45:48;;;;;;;5.90;2.20;;;;;;;7.63;84.10;101895.14;104623;1288;72487;-76
2022/04/30 06:48:32;;;;;;;4.70;1.70;;;;;;;7.68;84.48;101888.17;104209;1288;72013;-76
2022/04/30 06:51:00;;;;;;;7.10;2.60;;;;;;;7.73;83.96;101889.58;104061;1288;61266;-76
2022/04/30 06:59:39;;;;;;;7.90;2.90;;;;;;;7.83;83.52;101878.50;104054;1288;72875;-78
2022/04/30 07:02:13;;;;;;;6.80;3.10;;;;;;;7.89;83.49;101882.96;104862;1290;73236;-77
2022/04/30 07:04:41;;;;;;;5.30;2.90;;;;;;;7.95;83.78;101884.04;104244;1288;62148;-78
2022/04/30 07:07:23;;;;;;;;;;;;;;;;;;;;;
2022/04/30 07:09:50;;;;;;;4.20;2.30;;;;;;;7.97;83.26;101886.53;105024;1290;74555;-78
2022/04/30 07:12:17;;;;;;;7.70;2.40;;;;;;;7.99;83.52;101884.81;104076;1288;71873;-78
2022/04/30 07:15:01;;;;;;;6.30;2.10;;;;;;;8.01;83.54;101883.88;104168;1288;72932;-78
2022/04/30 07:17:39;;;;;;;8.60;2.60;;;;;;;8.05;83.86;101882.83;104926;1290;61758;-78
2022/04/30 07:20:09;;;;;;;5.80;2.80;;;;;;;8.04;83.27;101879.76;105056;1288;59739;-78
2022/04/30 07:22:46;;;;;;;8.10;2.00;;;;;;;8.03;84.20;101878.64;104169;1290;75993;-69
2022/04/30 07:25:14;;;;;;;8.20;3.20;;;;;;;8.06;84.28;101877.64;105953;1289;71401;-70
2022/04/30 07:27:43;;;;;;;4.90;2.30;;;;;;;8.07;84.35;101876.31;104256;1288;72057;-70
2022/04/30 07:30:10;;;;;;;6.60;2.30;;;;;;;8.08;84.27;101875.36;104129;1289;62590;-70
2022/04/30 07:32:57;;;;;;;5.50;2.10;;;;;;;8.10;84.31;101873.27;104063;1288;61370;-69
2022/04/30 07:35:57;;;;;;;7.70;2.70;;;;;;;8.12;84.93;101870.77;104096;1289;73675;-71
2022/04/30 07:38:40;;;;;;;;;;;;;;;;;;;;;
2022/04/30 07:41:07;;;;;;;9.60;3.20;;;;;;;8.21;85.61;101866.36;104065;1288;74327;-71
2022/04/30 07:43:36;;;;;;;7.20;2.80;;;;;;;8.22;85.69;101865.53;104193;1287;61880;-68
2022/04/30 07:46:06;;;;;;;5.00;2.70;;;;;;;8.23;85.42;101860.20;104203;1288;61347;-71
2022/04/30 07:48:44;;;;;;;8.90;3.10;;;;;;;8.24;85.68;101856.77;104213;1288;74846;-71
2022/04/30 07:51:16;;;;;;;8.50;3.00;;;;;;;8.27;86.40;101854.02;104181;1290;71409;-70
2022/04/30 07:53:45;;;;;;;10.80;2.90;;;;;;;8.25;85.85;101855.32;104113;1290;74236;-70
2022/04/30 07:56:19;;;;;;;9.90;3.40;;;;;;;8.21;85.90;101858.98;104230;1288;62203;-70
2022/04/30 07:58:54;;;;;;;5.40;2.70;;;;;;;8.13;86.76;101855.05;104168;1288;60443;-71
2022/04/30 08:01:21;;;;;;;6.40;2.90;;;;;;;8.08;86.95;101852.48;104490;1290;74977;-71
2022/04/30 08:03:57;;;;;;;8.50;3.40;;;;;;;8.03;86.42;101860.11;104178;1288;71406;-71
2022/04/30 08:06:45;;;;;;;6.10;3.20;;;;;;;8.01;87.12;101857.83;104096;1288;71997;-70
2022/04/30 08:09:19;;;;;;;5.00;1.90;;;;;;;8.00;87.13;101866.75;104211;1288;61298;-70
2022/04/30 08:12:06;;;;;;;8.10;4.50;;;;;;;7.98;87.39;101867.79;104337;1288;61300;-69
2022/04/30 08:14:51;;;;;;;6.20;3.30;;;;;;;7.96;87.09;101871.30;104023;1287;77224;-70
2022/04/30 08:17:21;;;;;;;11.80;3.10;;;;;;;7.94;87.19;101872.48;103981;1288;72585;-69
2022/04/30 08:19:59;;;;;;;9.40;3.90;;;;;;;7.95;87.50;101871.85;104313;1287;74044;-69
2022/04/30 08:22:35;;;;;;;5.10;3.10;;;;;;;8.00;87.77;101873.61;104298;1288;62508;-69
2022/04/30 08:25:12;;;;;;;6.00;3.20;;;;;;;8.08;88.00;101874.14;104328;1288;61606;-69
2022/04/30 08:27:46;;;;;;;7.70;3.90;;;;;;;8.18;87.56;101871.88;104081;1288;76654;-69
2022/04/30 08:30:13;;;;;;;6.60;4.20;;;;;;;8.29;86.88;101871.52;104231;1288;72599;-70
2022/04/30 08:32:40;;;;;;;9.40;3.10;;;;;;;8.44;86.75;101868.30;104290;1288;72694;-69
2022/04/30 08:35:07;;;;;;;9.60;3.60;;;;;;;8.66;86.60;101867.11;103757;1291;62795;-69
2022/04/30 08:37:53;;;;;;;8.70;3.50;;;;;;;8.92;85.44;101865.54;104251;1288;62134;-69
2022/04/30 08:40:26;;;;;;;7.40;3.50;;;;;;;9.09;83.76;101861.38;104265;1288;75956;-67
2022/04/30 08:42:52;;;;;;;9.60;3.30;;;;;;;9.30;83.73;101862.83;103896;1288;72477;-69
2022/04/30 08:45:22;;;;;;;6.90;3.50;;;;;;;9.52;83.07;101862.13;104064;1288;74048;-69
2022/04/30 08:47:50;;;;;;;9.20;3.90;;;;;;;9.72;81.98;101863.46;104454;1288;63290;-68
2022/04/30 08:50:20;;;;;;;5.90;3.30;;;;;;;9.89;79.98;101861.06;104129;1290;61328;-69
2022/04/30 08:52:47;;;;;;;6.80;3.10;;;;;;;10.06;79.40;101859.98;104038;1290;76238;-69
2022/04/30 08:55:14;;;;;;;8.60;5.00;;;;;;;10.22;78.43;101865.95;104213;1288;70471;-69
2022/04/30 08:57:50;;;;;;;6.70;3.80;;;;;;;10.33;77.82;101863.01;104155;1290;74220;-68
2022/04/30 09:00:19;;;;;;;10.60;4.60;;;;;;;10.36;75.54;101863.55;104980;1287;62067;-68
2022/04/30 09:02:57;;;;;;;10.90;4.30;;;;;;;10.32;75.71;101861.64;104387;1287;61293;-67
2022/04/30 09:05:40;;;;;;;5.80;3.70;;;;;;;10.38;75.76;101862.48;104341;1288;76349;-68
2022/04/30 09:08:07;;;;;;;8.00;4.50;;;;;;;10.53;75.53;101863.41;104341;1288;72476;-69
2022/04/30 09:10:35;;;;;;;8.70;4.10;;;;;;;10.69;75.31;101859.98;104296;1287;74438;-68
2022/04/30 09:13:12;;;;;;;9.00;3.90;;;;;;;10.82;73.63;101860.95;104267;1288;61907;-67
2022/04/30 09:15:40;;;;;;;9.10;4.10;;;;;;;10.92;74.10;101860.52;104308;1288;61395;-68
2022/04/30 09:18:08;;;;;;;9.50;4.00;;;;;;;11.05;74.02;101856.48;104259;1288;74199;-68
2022/04/30 09:20:53;;;;;;;6.50;3.40;;;;;;;11.12;71.61;101857.02;104229;1288;71362;-69
2022/04/30 09:23:37;;;;;;;9.40;4.90;;;;;;;11.14;70.99;101855.56;104289;1288;74046;-68
2022/04/30 09:26:23;;;;;;;8.20;3.80;;;;;;;11.18;71.16;101857.36;104274;1288;63547;-68
2022/04/30 09:28:49;;;;;;;;;;;;;;;11.25;71.07;101858.20;104266;1290;61287;-68
2022/04/30 09:31:34;;;;;;;5.00;2.90;;;;;;;11.36;71.49;101859.94;104234;1288;78694;-68
2022/04/30 09:37:41;;;;;;;5.50;3.70;;;;;;;11.45;70.57;101854.36;104191;1288;71601;-68
2022/04/30 09:39:44;;;;;;;6.70;4.00;;;;;;;11.54;69.28;101852.00;104168;1288;61483;-68
2022/04/30 09:42:20;;;;;;;9.40;4.60;;;;;;;11.65;68.49;101850.17;104444;1288;480254;-68
2022/04/30 09:44:47;;;;;;;6.90;3.40;;;;;;;11.77;68.39;101846.14;104196;1288;75684;-69
2022/04/30 09:47:17;;;;;;;8.70;3.20;;;;;;;11.88;67.29;101846.33;104144;1288;71855;-67
2022/04/30 09:55:15;;;;;;;11.70;3.40;;;;;;;12.45;64.79;101841.24;104231;1288;61217;-69
2022/04/30 09:57:42;;;;;;;6.80;3.40;;;;;;;12.69;64.71;101837.98;104113;1288;76179;-67
2022/04/30 10:00:10;;;;;;;9.40;4.60;;;;;;;12.87;63.82;101842.30;104199;1288;72818;-68
2022/04/30 10:02:38;;;;;;;9.90;4.00;;;;;;;12.92;62.87;101839.31;104161;1288;74504;-66
2022/04/30 10:05:07;;;;;;;6.50;3.10;;;;;;;12.98;62.67;101837.03;104250;1288;61405;-67
2022/04/30 10:07:34;;;;;;;5.40;3.00;;;;;;;13.02;62.69;101841.04;104044;1288;62004;-68
2022/04/30 10:10:51;;;;;;;8.80;3.00;;;;;;;12.91;61.41;101845.29;104214;1288;75965;-69
2022/04/30 10:13:43;;;;;;;8.00;3.20;;;;;;;12.75;61.87;101839.49;103446;1294;71429;-68
2022/04/30 10:16:16;;;;;;;7.70;3.60;;;;;;;12.82;61.54;101840.52;104260;1287;73467;-68
2022/04/30 10:18:45;;;;;;;6.00;3.30;;;;;;;12.82;61.10;101837.69;105868;1286;61562;-70
2022/04/30 10:21:39;;;;;;;7.00;2.90;;;;;;;12.86;61.58;101835.37;104110;1288;61789;-69
2022/04/30 10:24:16;;;;;;;9.00;3.10;;;;;;;12.90;60.59;101835.09;104167;1288;76071;-68
2022/04/30 10:26:59;;;;;;;11.00;3.50;;;;;;;12.93;60.09;101830.14;104233;1288;72969;-68
2022/04/30 10:29:25;;;;;;;3.60;2.20;;;;;;;12.87;58.09;101831.29;104283;1288;74055;-68
2022/04/30 10:32:01;;;;;;;5.40;2.80;;;;;;;12.82;58.43;101829.20;104275;1288;62005;-67
2022/04/30 10:34:30;;;;;;;4.90;2.70;;;;;;;12.82;59.06;101824.35;104257;1288;61455;-69
2022/04/30 10:37:01;;;;;;;4.00;2.70;;;;;;;12.75;58.28;101827.68;104268;1289;74790;-67
2022/04/30 10:39:28;;;;;;;7.60;2.60;;;;;;;12.63;58.12;101829.92;104843;1287;72400;-68
2022/04/30 10:42:08;;;;;;;6.40;2.00;;;;;;;12.52;58.71;101819.35;104006;1288;72742;-69
2022/04/30 10:44:35;;;;;;;9.30;2.30;;;;;;;12.47;57.71;101820.79;104110;1288;61332;-69
2022/04/30 10:47:12;;;;;;;8.40;2.30;;;;;;;12.48;56.89;101817.27;104152;1288;62209;-69
2022/04/30 10:49:44;;;;;;;6.20;2.20;;;;;;;12.46;56.64;101816.66;104203;1288;75322;-69
2022/04/30 10:52:24;;;;;;;3.10;1.90;;;;;;;12.38;56.85;101811.03;104256;1288;73088;-70
2022/04/30 10:54:54;;;;;;;3.70;1.60;;;;;;;12.44;57.76;101814.22;104247;1288;74013;-69
2022/04/30 10:57:24;;;;;;;6.50;2.60;;;;;;;12.39;57.39;101811.81;104103;1287;61699;-69
2022/04/30 11:00:14;;;;;;;4.30;2.10;;;;;;;12.33;57.29;101817.66;103859;1289;62733;-69
2022/04/30 11:02:48;;;;;;;7.20;2.30;;;;;;;12.16;57.71;101820.44;104181;1288;75031;-70
2022/04/30 11:05:23;;;;;;;4.40;1.80;;;;;;;12.03;57.45;101814.51;104221;1288;71513;-69
2022/04/30 11:07:50;;;;;;;3.40;1.80;;;;;;;12.01;57.69;101813.77;104215;1288;74008;-69
2022/04/30 11:10:17;;;;;;;5.60;2.10;;;;;;;12.04;57.73;101817.58;104279;1288;61714;-70
2022/04/30 11:12:44;;;;;;;4.80;2.40;;;;;;;12.01;58.14;101811.00;104027;1288;61856;-71
2022/04/30 11:15:16;;;;;;;3.80;2.30;;;;;;;12.00;58.47;101813.55;104201;1287;75893;-74
2022/04/30 11:17:47;;;;;;;6.50;2.80;;;;;;;11.99;58.35;101813.80;104220;1288;72608;-71
2022/04/30 11:20:22;;;;;;;6.90;2.30;;;;;;;11.97;58.59;101807.09;104207;1288;74187;-73
2022/04/30 11:22:55;;;;;;;;;;;;;;;11.93;58.33;101810.89;104462;1288;61271;-72
2022/04/30 11:25:42;;;;;;;;;;;;;;;;;;;;;
2022/04/30 11:28:10;;;;;;;5.60;2.20;;;;;;;11.74;59.26;101807.84;104064;1288;73217;-73
2022/04/30 11:30:38;;;;;;;4.60;2.50;;;;;;;11.64;59.97;101805.30;104273;1288;72636;-73
2022/04/30 11:33:12;;;;;;;5.50;2.70;;;;;;;11.60;59.99;101805.17;104046;1290;75058;-70
2022/04/30 11:35:48;;;;;;;7.90;2.60;;;;;;;11.50;60.09;101800.33;104243;1288;61635;-71
2022/04/30 11:38:17;;;;;;;5.50;2.30;;;;;;;11.39;60.61;101803.91;104234;1288;61798;-73
2022/04/30 11:41:01;;;;;;;4.30;2.50;;;;;;;11.28;60.78;101810.42;104266;1288;77331;-74
2022/04/30 11:43:28;;;;;;;5.40;2.90;;;;;;;11.17;60.72;101802.58;104194;1288;72076;-73
2022/04/30 11:46:03;;;;;;;6.70;3.10;;;;;;;11.11;61.13;101799.26;104193;1288;61258;-73
2022/04/30 11:48:39;;;;;;;5.10;2.50;;;;;;;11.16;60.80;101794.54;104288;1287;61563;-72
2022/04/30 11:51:22;;;;;;;6.60;2.10;;;;;;;11.27;60.18;101786.11;104043;1288;61788;-75
2022/04/30 11:53:52;;;;;;;4.40;2.40;;;;;;;11.40;60.24;101789.20;104420;1288;74729;-72
2022/04/30 11:56:30;;;;;;;4.30;2.90;;;;;;;11.43;60.78;101785.94;104134;1288;72744;-72
2022/04/30 11:58:57;;;;;;;5.10;2.90;;;;;;;11.48;61.18;101784.11;104148;1290;72949;-73
2022/04/30 12:01:26;;;;;;;5.10;2.20;;;;;;;11.52;61.29;101784.41;104304;1288;61236;-73
2022/04/30 12:04:05;;;;;;;6.90;2.90;;;;;;;11.56;61.43;101781.65;104637;1289;61461;-71
2022/04/30 12:06:32;;;;;;;5.30;2.50;;;;;;;11.62;61.50;101782.13;104219;1288;76209;-71
2022/04/30 12:08:59;;;;;;;6.00;2.40;;;;;;;11.67;61.19;101778.58;104300;1288;72476;-72
2022/04/30 12:11:26;;;;;;;5.10;2.90;;;;;;;11.67;61.50;101773.23;104211;1288;73994;-74
2022/04/30 12:14:03;;;;;;;6.50;3.10;;;;;;;11.72;61.56;101770.24;104157;1288;61271;-70
2022/04/30 12:16:36;;;;;;;6.40;2.60;;;;;;;11.71;60.30;101771.47;104196;1287;61982;-72
2022/04/30 12:24:45;;;;;;;4.10;2.50;;;;;;;11.68;60.51;101768.42;103786;1289;74023;-72
2022/04/30 12:27:22;;;;;;;5.60;2.90;;;;;;;11.75;60.61;101766.91;103964;1290;61759;-73
2022/04/30 12:30:23;;;;;;;5.30;2.90;;;;;;;11.79;60.27;101764.92;104276;1287;61268;-72
2022/04/30 12:32:58;;;;;;;6.40;2.90;;;;;;;11.94;60.65;101759.60;103729;1289;75399;-72
2022/04/30 12:35:30;;;;;;;5.10;3.00;;;;;;;12.06;60.33;101752.96;104279;1288;71400;-73
2022/04/30 12:38:08;;;;;;;4.40;2.30;;;;;;;12.15;59.63;101749.04;105216;1287;75515;-71
2022/04/30 12:40:37;;;;;;;6.20;2.60;;;;;;;12.24;59.43;101749.91;104276;1288;61229;-71
2022/04/30 12:43:04;;;;;;;4.50;2.90;;;;;;;12.32;59.76;101745.89;104077;1288;61245;-73
2022/04/30 12:45:34;;;;;;;3.60;2.40;;;;;;;12.43;60.01;101745.44;103899;1291;76205;-72